sensor_id;sensor_type;location;lat;lon;timestamp;P1;durP1;ratioP1;P2;durP2;ratioP2
69744;SDS011;57015;50.120;-5.168;2023-04-25T00:02:09;2.72;;;0.30;;
69744;SDS011;57015;50.120;-5.168;2023-04-25T00:04:35;1.23;;;0.33;;
69744;SDS011;57015;50.120;-5.168;2023-04-25T00:07:02;2.92;;;0.60;;
69744;SDS011;57015;50.120;-5.168;2023-04-25T00:09:28;4.10;;;0.53;;
69744;SDS011;57015;50.120;-5.168;2023-04-25T00:11:53;1.90;;;0.40;;
69744;SDS011;57015;50.120;-5.168;2023-04-25T00:14:19;2.93;;;0.50;;
69744;SDS011;57015;50.120;-5.168;2023-04-25T00:16:44;2.17;;;0.45;;
69744;SDS011;57015;50.120;-5.168;2023-04-25T00:19:10;2.10;;;0.68;;
69744;SDS011;57015;50.120;-5.168;2023-04-25T00:21:35;2.07;;;0.40;;
69744;SDS011;57015;50.120;-5.168;2023-04-25T00:24:02;4.05;;;0.28;;
69744;SDS011;57015;50.120;-5.168;2023-04-25T00:26:28;4.20;;;0.30;;
69744;SDS011;57015;50.120;-5.168;2023-04-25T00:28:53;1.60;;;0.47;;
69744;SDS011;57015;50.120;-5.168;2023-04-25T00:31:19;1.37;;;0.33;;
69744;SDS011;57015;50.120;-5.168;2023-04-25T00:33:44;3.40;;;0.40;;
69744;SDS011;57015;50.120;-5.168;2023-04-25T00:36:10;1.00;;;0.30;;
69744;SDS011;57015;50.120;-5.168;2023-04-25T00:38:36;2.88;;;0.47;;
69744;SDS011;57015;50.120;-5.168;2023-04-25T00:41:03;1.13;;;0.30;;
69744;SDS011;57015;50.120;-5.168;2023-04-25T00:43:30;1.57;;;0.40;;
69744;SDS011;57015;50.120;-5.168;2023-04-25T00:45:57;2.80;;;0.50;;
69744;SDS011;57015;50.120;-5.168;2023-04-25T00:48:25;1.08;;;0.30;;
69744;SDS011;57015;50.120;-5.168;2023-04-25T00:50:52;2.10;;;0.43;;
69744;SDS011;57015;50.120;-5.168;2023-04-25T00:53:19;2.97;;;0.50;;
69744;SDS011;57015;50.120;-5.168;2023-04-25T00:55:46;3.38;;;0.52;;
69744;SDS011;57015;50.120;-5.168;2023-04-25T00:58:11;1.30;;;0.40;;
69744;SDS011;57015;50.120;-5.168;2023-04-25T01:00:36;1.50;;;0.53;;
69744;SDS011;57015;50.120;-5.168;2023-04-25T01:03:02;1.87;;;0.53;;
69744;SDS011;57015;50.120;-5.168;2023-04-25T01:05:28;1.60;;;0.40;;
69744;SDS011;57015;50.120;-5.168;2023-04-25T01:07:54;1.95;;;0.30;;
69744;SDS011;57015;50.120;-5.168;2023-04-25T01:10:20;1.87;;;0.50;;
69744;SDS011;57015;50.120;-5.168;2023-04-25T01:12:45;2.67;;;0.40;;
69744;SDS011;57015;50.120;-5.168;2023-04-25T01:15:11;2.03;;;0.50;;
69744;SDS011;57015;50.120;-5.168;2023-04-25T01:17:36;1.80;;;0.40;;
69744;SDS011;57015;50.120;-5.168;2023-04-25T01:20:05;1.40;;;0.20;;
69744;SDS011;57015;50.120;-5.168;2023-04-25T01:22:32;1.55;;;0.38;;
69744;SDS011;57015;50.120;-5.168;2023-04-25T01:24:58;3.30;;;0.60;;
69744;SDS011;57015;50.120;-5.168;2023-04-25T01:27:24;2.00;;;0.57;;
69744;SDS011;57015;50.120;-5.168;2023-04-25T01:29:50;1.55;;;0.50;;
69744;SDS011;57015;50.120;-5.168;2023-04-25T01:32:15;1.33;;;0.50;;
69744;SDS011;57015;50.120;-5.168;2023-04-25T01:34:41;3.07;;;0.80;;
69744;SDS011;57015;50.120;-5.168;2023-04-25T01:37:06;3.08;;;0.60;;
69744;SDS011;57015;50.120;-5.168;2023-04-25T01:39:32;2.33;;;0.50;;
69744;SDS011;57015;50.120;-5.168;2023-04-25T01:41:58;2.07;;;0.80;;
69744;SDS011;57015;50.120;-5.168;2023-04-25T01:44:24;3.50;;;0.60;;
69744;SDS011;57015;50.120;-5.168;2023-04-25T01:46:50;2.27;;;0.70;;
69744;SDS011;57015;50.120;-5.168;2023-04-25T01:49:16;2.03;;;0.40;;
69744;SDS011;57015;50.120;-5.168;2023-04-25T01:51:41;2.30;;;0.50;;
69744;SDS011;57015;50.120;-5.168;2023-04-25T01:54:07;2.27;;;0.67;;
69744;SDS011;57015;50.120;-5.168;2023-04-25T01:56:34;2.55;;;0.50;;
69744;SDS011;57015;50.120;-5.168;2023-04-25T01:59:02;1.95;;;0.63;;
69744;SDS011;57015;50.120;-5.168;2023-04-25T02:01:28;2.17;;;0.60;;
69744;SDS011;57015;50.120;-5.168;2023-04-25T02:03:53;3.90;;;0.70;;
69744;SDS011;57015;50.120;-5.168;2023-04-25T02:06:19;2.73;;;0.80;;
69744;SDS011;57015;50.120;-5.168;2023-04-25T02:08:44;2.30;;;0.50;;
69744;SDS011;57015;50.120;-5.168;2023-04-25T02:11:09;1.75;;;0.55;;
69744;SDS011;57015;50.120;-5.168;2023-04-25T02:13:35;3.55;;;0.50;;
69744;SDS011;57015;50.120;-5.168;2023-04-25T02:16:00;3.67;;;0.70;;
69744;SDS011;57015;50.120;-5.168;2023-04-25T02:18:25;3.60;;;0.60;;
69744;SDS011;57015;50.120;-5.168;2023-04-25T02:20:51;2.50;;;0.70;;
69744;SDS011;57015;50.120;-5.168;2023-04-25T02:23:17;2.27;;;0.60;;
69744;SDS011;57015;50.120;-5.168;2023-04-25T02:25:44;2.35;;;0.73;;
69744;SDS011;57015;50.120;-5.168;2023-04-25T02:28:09;3.95;;;0.85;;
69744;SDS011;57015;50.120;-5.168;2023-04-25T02:30:35;1.90;;;0.50;;
69744;SDS011;57015;50.120;-5.168;2023-04-25T02:33:01;2.47;;;1.07;;
69744;SDS011;57015;50.120;-5.168;2023-04-25T02:35:26;2.50;;;0.70;;
69744;SDS011;57015;50.120;-5.168;2023-04-25T02:37:51;2.63;;;0.70;;
69744;SDS011;57015;50.120;-5.168;2023-04-25T02:40:17;2.70;;;0.83;;
69744;SDS011;57015;50.120;-5.168;2023-04-25T02:42:42;3.57;;;1.00;;
69744;SDS011;57015;50.120;-5.168;2023-04-25T02:45:08;3.57;;;1.23;;
69744;SDS011;57015;50.120;-5.168;2023-04-25T02:47:34;3.10;;;0.80;;
69744;SDS011;57015;50.120;-5.168;2023-04-25T02:49:59;2.93;;;1.03;;
69744;SDS011;57015;50.120;-5.168;2023-04-25T02:52:24;4.43;;;1.40;;
69744;SDS011;57015;50.120;-5.168;2023-04-25T02:54:50;3.30;;;1.15;;
69744;SDS011;57015;50.120;-5.168;2023-04-25T02:57:15;3.93;;;1.50;;
69744;SDS011;57015;50.120;-5.168;2023-04-25T02:59:41;4.90;;;1.40;;
69744;SDS011;57015;50.120;-5.168;2023-04-25T03:02:06;2.83;;;1.00;;
69744;SDS011;57015;50.120;-5.168;2023-04-25T03:04:31;4.07;;;1.17;;
69744;SDS011;57015;50.120;-5.168;2023-04-25T03:06:58;4.50;;;1.50;;
69744;SDS011;57015;50.120;-5.168;2023-04-25T03:09:24;3.83;;;1.58;;
69744;SDS011;57015;50.120;-5.168;2023-04-25T03:11:49;4.88;;;1.20;;
69744;SDS011;57015;50.120;-5.168;2023-04-25T03:14:14;4.43;;;1.50;;
69744;SDS011;57015;50.120;-5.168;2023-04-25T03:16:40;4.37;;;1.87;;
69744;SDS011;57015;50.120;-5.168;2023-04-25T03:19:05;4.70;;;1.57;;
69744;SDS011;57015;50.120;-5.168;2023-04-25T03:21:31;4.20;;;1.50;;
69744;SDS011;57015;50.120;-5.168;2023-04-25T03:23:57;4.43;;;1.30;;
69744;SDS011;57015;50.120;-5.168;2023-04-25T03:26:23;3.08;;;1.05;;
69744;SDS011;57015;50.120;-5.168;2023-04-25T03:28:49;4.43;;;1.37;;
69744;SDS011;57015;50.120;-5.168;2023-04-25T03:31:15;7.55;;;1.95;;
69744;SDS011;57015;50.120;-5.168;2023-04-25T03:33:40;4.53;;;1.50;;
69744;SDS011;57015;50.120;-5.168;2023-04-25T03:36:06;3.83;;;1.30;;
69744;SDS011;57015;50.120;-5.168;2023-04-25T03:38:31;3.65;;;1.50;;
69744;SDS011;57015;50.120;-5.168;2023-04-25T03:40:57;3.97;;;1.60;;
69744;SDS011;57015;50.120;-5.168;2023-04-25T03:43:22;5.13;;;1.70;;
69744;SDS011;57015;50.120;-5.168;2023-04-25T03:45:48;4.67;;;1.33;;
69744;SDS011;57015;50.120;-5.168;2023-04-25T03:48:13;4.60;;;1.38;;
69744;SDS011;57015;50.120;-5.168;2023-04-25T03:50:38;4.10;;;1.83;;
69744;SDS011;57015;50.120;-5.168;2023-04-25T03:53:04;3.90;;;1.40;;
69744;SDS011;57015;50.120;-5.168;2023-04-25T03:55:29;7.60;;;1.93;;
69744;SDS011;57015;50.120;-5.168;2023-04-25T03:57:55;5.25;;;1.92;;
69744;SDS011;57015;50.120;-5.168;2023-04-25T04:00:23;4.30;;;1.33;;
69744;SDS011;57015;50.120;-5.168;2023-04-25T04:02:48;5.17;;;1.77;;
69744;SDS011;57015;50.120;-5.168;2023-04-25T04:05:14;4.30;;;1.47;;
69744;SDS011;57015;50.120;-5.168;2023-04-25T04:07:39;5.47;;;1.90;;
69744;SDS011;57015;50.120;-5.168;2023-04-25T04:10:08;5.35;;;1.63;;
69744;SDS011;57015;50.120;-5.168;2023-04-25T04:12:37;5.63;;;2.00;;
69744;SDS011;57015;50.120;-5.168;2023-04-25T04:15:03;4.33;;;1.90;;
69744;SDS011;57015;50.120;-5.168;2023-04-25T04:17:29;5.13;;;2.13;;
69744;SDS011;57015;50.120;-5.168;2023-04-25T04:19:55;4.80;;;2.17;;
69744;SDS011;57015;50.120;-5.168;2023-04-25T04:22:21;5.77;;;1.90;;
69744;SDS011;57015;50.120;-5.168;2023-04-25T04:24:47;7.13;;;2.90;;
69744;SDS011;57015;50.120;-5.168;2023-04-25T04:27:12;5.97;;;2.00;;
69744;SDS011;57015;50.120;-5.168;2023-04-25T04:29:38;6.90;;;2.67;;
69744;SDS011;57015;50.120;-5.168;2023-04-25T04:32:03;6.40;;;2.17;;
69744;SDS011;57015;50.120;-5.168;2023-04-25T04:34:29;6.85;;;2.45;;
69744;SDS011;57015;50.120;-5.168;2023-04-25T04:36:56;5.95;;;2.40;;
69744;SDS011;57015;50.120;-5.168;2023-04-25T04:39:21;5.50;;;2.30;;
69744;SDS011;57015;50.120;-5.168;2023-04-25T04:41:47;5.90;;;2.75;;
69744;SDS011;57015;50.120;-5.168;2023-04-25T04:44:12;8.33;;;2.80;;
69744;SDS011;57015;50.120;-5.168;2023-04-25T04:46:39;6.03;;;2.10;;
69744;SDS011;57015;50.120;-5.168;2023-04-25T04:49:05;6.33;;;2.40;;
69744;SDS011;57015;50.120;-5.168;2023-04-25T04:51:31;7.10;;;2.78;;
69744;SDS011;57015;50.120;-5.168;2023-04-25T04:53:56;6.03;;;2.10;;
69744;SDS011;57015;50.120;-5.168;2023-04-25T04:56:23;6.57;;;2.58;;
69744;SDS011;57015;50.120;-5.168;2023-04-25T04:58:50;5.50;;;2.50;;
69744;SDS011;57015;50.120;-5.168;2023-04-25T05:01:16;7.63;;;2.87;;
69744;SDS011;57015;50.120;-5.168;2023-04-25T05:03:41;5.90;;;2.42;;
69744;SDS011;57015;50.120;-5.168;2023-04-25T05:06:06;7.10;;;2.83;;
69744;SDS011;57015;50.120;-5.168;2023-04-25T05:08:33;7.23;;;2.53;;
69744;SDS011;57015;50.120;-5.168;2023-04-25T05:10:59;8.13;;;3.17;;
69744;SDS011;57015;50.120;-5.168;2023-04-25T05:13:24;7.20;;;2.93;;
69744;SDS011;57015;50.120;-5.168;2023-04-25T05:15:50;8.47;;;2.87;;
69744;SDS011;57015;50.120;-5.168;2023-04-25T05:18:15;8.70;;;3.13;;
69744;SDS011;57015;50.120;-5.168;2023-04-25T05:20:40;8.70;;;3.00;;
69744;SDS011;57015;50.120;-5.168;2023-04-25T05:23:06;7.50;;;2.87;;
69744;SDS011;57015;50.120;-5.168;2023-04-25T05:25:31;7.13;;;2.73;;
69744;SDS011;57015;50.120;-5.168;2023-04-25T05:27:56;8.10;;;3.33;;
69744;SDS011;57015;50.120;-5.168;2023-04-25T05:30:23;7.85;;;3.28;;
69744;SDS011;57015;50.120;-5.168;2023-04-25T05:32:48;7.20;;;2.78;;
69744;SDS011;57015;50.120;-5.168;2023-04-25T05:35:14;7.17;;;2.97;;
69744;SDS011;57015;50.120;-5.168;2023-04-25T05:37:39;7.47;;;3.20;;
69744;SDS011;57015;50.120;-5.168;2023-04-25T05:40:05;7.80;;;2.83;;
69744;SDS011;57015;50.120;-5.168;2023-04-25T05:42:32;6.97;;;2.83;;
69744;SDS011;57015;50.120;-5.168;2023-04-25T05:44:57;8.37;;;3.03;;
69744;SDS011;57015;50.120;-5.168;2023-04-25T05:47:23;8.03;;;2.67;;
69744;SDS011;57015;50.120;-5.168;2023-04-25T05:49:48;7.40;;;2.75;;
69744;SDS011;57015;50.120;-5.168;2023-04-25T05:52:13;6.35;;;2.55;;
69744;SDS011;57015;50.120;-5.168;2023-04-25T05:54:40;9.13;;;2.97;;
69744;SDS011;57015;50.120;-5.168;2023-04-25T05:57:05;9.75;;;3.45;;
69744;SDS011;57015;50.120;-5.168;2023-04-25T05:59:31;9.43;;;3.67;;
69744;SDS011;57015;50.120;-5.168;2023-04-25T06:01:56;9.10;;;3.40;;
69744;SDS011;57015;50.120;-5.168;2023-04-25T06:04:22;12.02;;;4.30;;
69744;SDS011;57015;50.120;-5.168;2023-04-25T06:06:47;14.80;;;4.23;;
69744;SDS011;57015;50.120;-5.168;2023-04-25T06:09:13;10.30;;;3.37;;
69744;SDS011;57015;50.120;-5.168;2023-04-25T06:11:38;12.13;;;3.27;;
69744;SDS011;57015;50.120;-5.168;2023-04-25T06:14:03;9.27;;;3.33;;
69744;SDS011;57015;50.120;-5.168;2023-04-25T06:16:29;11.13;;;3.37;;
69744;SDS011;57015;50.120;-5.168;2023-04-25T06:18:54;11.07;;;3.77;;
69744;SDS011;57015;50.120;-5.168;2023-04-25T06:21:19;11.55;;;3.58;;
69744;SDS011;57015;50.120;-5.168;2023-04-25T06:23:45;11.45;;;3.63;;
69744;SDS011;57015;50.120;-5.168;2023-04-25T06:26:10;10.27;;;3.03;;
69744;SDS011;57015;50.120;-5.168;2023-04-25T06:28:36;8.60;;;3.17;;
69744;SDS011;57015;50.120;-5.168;2023-04-25T06:31:01;10.57;;;3.37;;
69744;SDS011;57015;50.120;-5.168;2023-04-25T06:33:26;11.47;;;3.70;;
69744;SDS011;57015;50.120;-5.168;2023-04-25T06:35:52;14.10;;;3.00;;
69744;SDS011;57015;50.120;-5.168;2023-04-25T06:38:17;15.23;;;2.72;;
69744;SDS011;57015;50.120;-5.168;2023-04-25T06:40:43;8.33;;;2.67;;
69744;SDS011;57015;50.120;-5.168;2023-04-25T06:43:08;10.43;;;2.97;;
69744;SDS011;57015;50.120;-5.168;2023-04-25T06:45:33;8.67;;;2.70;;
69744;SDS011;57015;50.120;-5.168;2023-04-25T06:47:59;7.97;;;2.83;;
69744;SDS011;57015;50.120;-5.168;2023-04-25T06:50:24;8.05;;;2.75;;
69744;SDS011;57015;50.120;-5.168;2023-04-25T06:52:50;12.03;;;3.00;;
69744;SDS011;57015;50.120;-5.168;2023-04-25T06:55:15;12.37;;;3.20;;
69744;SDS011;57015;50.120;-5.168;2023-04-25T06:57:40;10.17;;;2.90;;
69744;SDS011;57015;50.120;-5.168;2023-04-25T07:00:06;10.80;;;2.70;;
69744;SDS011;57015;50.120;-5.168;2023-04-25T07:02:34;11.55;;;2.78;;
69744;SDS011;57015;50.120;-5.168;2023-04-25T07:05:00;9.47;;;2.83;;
69744;SDS011;57015;50.120;-5.168;2023-04-25T07:07:25;8.88;;;2.50;;
69744;SDS011;57015;50.120;-5.168;2023-04-25T07:09:51;8.70;;;2.40;;
69744;SDS011;57015;50.120;-5.168;2023-04-25T07:12:17;7.75;;;2.83;;
69744;SDS011;57015;50.120;-5.168;2023-04-25T07:14:42;7.40;;;2.03;;
69744;SDS011;57015;50.120;-5.168;2023-04-25T07:17:07;7.80;;;2.80;;
69744;SDS011;57015;50.120;-5.168;2023-04-25T07:19:33;8.23;;;2.60;;
69744;SDS011;57015;50.120;-5.168;2023-04-25T07:21:58;7.27;;;2.60;;
69744;SDS011;57015;50.120;-5.168;2023-04-25T07:24:24;7.80;;;2.93;;
69744;SDS011;57015;50.120;-5.168;2023-04-25T07:26:49;12.75;;;2.63;;
69744;SDS011;57015;50.120;-5.168;2023-04-25T07:29:15;9.23;;;3.00;;
69744;SDS011;57015;50.120;-5.168;2023-04-25T07:31:40;9.87;;;2.47;;
69744;SDS011;57015;50.120;-5.168;2023-04-25T07:34:06;9.07;;;2.47;;
69744;SDS011;57015;50.120;-5.168;2023-04-25T07:36:32;7.13;;;2.43;;
69744;SDS011;57015;50.120;-5.168;2023-04-25T07:38:57;12.47;;;2.83;;
69744;SDS011;57015;50.120;-5.168;2023-04-25T07:41:23;11.80;;;2.88;;
69744;SDS011;57015;50.120;-5.168;2023-04-25T07:43:48;6.97;;;2.53;;
69744;SDS011;57015;50.120;-5.168;2023-04-25T07:46:13;6.63;;;2.40;;
69744;SDS011;57015;50.120;-5.168;2023-04-25T07:48:39;7.17;;;2.63;;
69744;SDS011;57015;50.120;-5.168;2023-04-25T07:51:04;8.93;;;2.27;;
69744;SDS011;57015;50.120;-5.168;2023-04-25T07:53:30;9.73;;;2.85;;
69744;SDS011;57015;50.120;-5.168;2023-04-25T07:55:55;8.13;;;2.43;;
69744;SDS011;57015;50.120;-5.168;2023-04-25T07:58:21;8.90;;;2.43;;
69744;SDS011;57015;50.120;-5.168;2023-04-25T08:00:47;8.57;;;2.53;;
69744;SDS011;57015;50.120;-5.168;2023-04-25T08:03:13;10.53;;;2.60;;
69744;SDS011;57015;50.120;-5.168;2023-04-25T08:05:38;8.98;;;3.35;;
69744;SDS011;57015;50.120;-5.168;2023-04-25T08:08:04;8.53;;;2.70;;
69744;SDS011;57015;50.120;-5.168;2023-04-25T08:10:31;12.55;;;3.55;;
69744;SDS011;57015;50.120;-5.168;2023-04-25T08:12:57;6.93;;;2.43;;
69744;SDS011;57015;50.120;-5.168;2023-04-25T08:15:22;10.10;;;2.70;;
69744;SDS011;57015;50.120;-5.168;2023-04-25T08:17:47;7.70;;;2.73;;
69744;SDS011;57015;50.120;-5.168;2023-04-25T08:20:13;8.30;;;2.33;;
69744;SDS011;57015;50.120;-5.168;2023-04-25T08:22:38;12.07;;;3.70;;
69744;SDS011;57015;50.120;-5.168;2023-04-25T08:25:03;10.57;;;2.60;;
69744;SDS011;57015;50.120;-5.168;2023-04-25T08:27:29;12.43;;;2.73;;
69744;SDS011;57015;50.120;-5.168;2023-04-25T08:29:55;9.93;;;2.53;;
69744;SDS011;57015;50.120;-5.168;2023-04-25T08:32:20;11.03;;;2.53;;
69744;SDS011;57015;50.120;-5.168;2023-04-25T08:34:46;11.17;;;2.90;;
69744;SDS011;57015;50.120;-5.168;2023-04-25T08:37:12;11.43;;;2.58;;
69744;SDS011;57015;50.120;-5.168;2023-04-25T08:39:37;11.63;;;2.53;;
69744;SDS011;57015;50.120;-5.168;2023-04-25T08:42:05;12.73;;;2.50;;
69744;SDS011;57015;50.120;-5.168;2023-04-25T08:44:33;12.57;;;2.75;;
69744;SDS011;57015;50.120;-5.168;2023-04-25T08:46:59;8.23;;;2.30;;
69744;SDS011;57015;50.120;-5.168;2023-04-25T08:49:27;10.30;;;2.65;;
69744;SDS011;57015;50.120;-5.168;2023-04-25T08:51:53;7.67;;;2.30;;
69744;SDS011;57015;50.120;-5.168;2023-04-25T08:54:21;9.95;;;2.60;;
69744;SDS011;57015;50.120;-5.168;2023-04-25T08:56:49;5.03;;;2.05;;
69744;SDS011;57015;50.120;-5.168;2023-04-25T08:59:15;10.53;;;2.30;;
69744;SDS011;57015;50.120;-5.168;2023-04-25T09:01:40;10.80;;;2.57;;
69744;SDS011;57015;50.120;-5.168;2023-04-25T09:04:06;9.97;;;2.77;;
69744;SDS011;57015;50.120;-5.168;2023-04-25T09:06:31;8.85;;;2.53;;
69744;SDS011;57015;50.120;-5.168;2023-04-25T09:09:06;11.37;;;2.40;;
69744;SDS011;57015;50.120;-5.168;2023-04-25T09:11:32;10.75;;;2.47;;
69744;SDS011;57015;50.120;-5.168;2023-04-25T09:14:14;12.85;;;2.40;;
69744;SDS011;57015;50.120;-5.168;2023-04-25T09:19:25;9.10;;;2.05;;
69744;SDS011;57015;50.120;-5.168;2023-04-25T09:21:59;13.43;;;2.43;;
69744;SDS011;57015;50.120;-5.168;2023-04-25T09:24:38;10.52;;;2.50;;
69744;SDS011;57015;50.120;-5.168;2023-04-25T09:27:06;11.70;;;2.47;;
69744;SDS011;57015;50.120;-5.168;2023-04-25T09:29:32;13.40;;;2.90;;
69744;SDS011;57015;50.120;-5.168;2023-04-25T09:32:21;9.48;;;2.83;;
69744;SDS011;57015;50.120;-5.168;2023-04-25T09:34:48;8.47;;;2.20;;
69744;SDS011;57015;50.120;-5.168;2023-04-25T09:37:27;8.13;;;1.95;;
69744;SDS011;57015;50.120;-5.168;2023-04-25T09:39:54;10.15;;;2.78;;
69744;SDS011;57015;50.120;-5.168;2023-04-25T09:42:28;9.88;;;2.78;;
69744;SDS011;57015;50.120;-5.168;2023-04-25T09:44:56;16.35;;;2.53;;
69744;SDS011;57015;50.120;-5.168;2023-04-25T09:47:23;11.93;;;2.83;;
69744;SDS011;57015;50.120;-5.168;2023-04-25T09:49:49;13.65;;;2.90;;
69744;SDS011;57015;50.120;-5.168;2023-04-25T09:52:16;7.70;;;2.00;;
69744;SDS011;57015;50.120;-5.168;2023-04-25T09:54:43;8.77;;;2.63;;
69744;SDS011;57015;50.120;-5.168;2023-04-25T09:59:45;10.03;;;2.23;;
69744;SDS011;57015;50.120;-5.168;2023-04-25T10:02:12;7.95;;;2.38;;
69744;SDS011;57015;50.120;-5.168;2023-04-25T10:04:38;13.30;;;2.80;;
69744;SDS011;57015;50.120;-5.168;2023-04-25T10:07:07;10.48;;;2.08;;
69744;SDS011;57015;50.120;-5.168;2023-04-25T10:09:36;14.88;;;3.50;;
69744;SDS011;57015;50.120;-5.168;2023-04-25T10:12:02;10.52;;;2.40;;
69744;SDS011;57015;50.120;-5.168;2023-04-25T10:14:29;12.13;;;2.95;;
69744;SDS011;57015;50.120;-5.168;2023-04-25T10:16:55;9.23;;;2.22;;
69744;SDS011;57015;50.120;-5.168;2023-04-25T10:19:23;14.00;;;2.37;;
69744;SDS011;57015;50.120;-5.168;2023-04-25T10:21:54;14.35;;;1.88;;
69744;SDS011;57015;50.120;-5.168;2023-04-25T10:24:23;13.88;;;2.42;;
69744;SDS011;57015;50.120;-5.168;2023-04-25T10:26:49;16.20;;;2.60;;
69744;SDS011;57015;50.120;-5.168;2023-04-25T10:29:25;9.53;;;2.20;;
69744;SDS011;57015;50.120;-5.168;2023-04-25T10:31:51;11.88;;;2.42;;
69744;SDS011;57015;50.120;-5.168;2023-04-25T10:34:17;8.40;;;1.90;;
69744;SDS011;57015;50.120;-5.168;2023-04-25T10:36:42;13.40;;;2.27;;
69744;SDS011;57015;50.120;-5.168;2023-04-25T10:39:08;10.35;;;3.00;;
69744;SDS011;57015;50.120;-5.168;2023-04-25T10:41:46;8.52;;;1.95;;
69744;SDS011;57015;50.120;-5.168;2023-04-25T10:44:15;13.77;;;2.20;;
69744;SDS011;57015;50.120;-5.168;2023-04-25T10:46:40;8.82;;;2.17;;
69744;SDS011;57015;50.120;-5.168;2023-04-25T10:49:06;17.90;;;2.63;;
69744;SDS011;57015;50.120;-5.168;2023-04-25T10:51:33;8.17;;;2.00;;
69744;SDS011;57015;50.120;-5.168;2023-04-25T10:54:03;7.25;;;1.70;;
69744;SDS011;57015;50.120;-5.168;2023-04-25T10:59:06;9.48;;;2.13;;
69744;SDS011;57015;50.120;-5.168;2023-04-25T11:04:30;9.23;;;1.93;;
69744;SDS011;57015;50.120;-5.168;2023-04-25T11:09:28;10.77;;;2.10;;
69744;SDS011;57015;50.120;-5.168;2023-04-25T11:11:57;10.27;;;1.83;;
69744;SDS011;57015;50.120;-5.168;2023-04-25T11:14:26;12.45;;;2.75;;
69744;SDS011;57015;50.120;-5.168;2023-04-25T11:16:58;11.63;;;2.10;;
69744;SDS011;57015;50.120;-5.168;2023-04-25T11:19:24;8.93;;;2.00;;
69744;SDS011;57015;50.120;-5.168;2023-04-25T11:21:50;9.80;;;2.07;;
69744;SDS011;57015;50.120;-5.168;2023-04-25T11:24:21;17.73;;;2.83;;
69744;SDS011;57015;50.120;-5.168;2023-04-25T11:26:51;8.27;;;2.17;;
69744;SDS011;57015;50.120;-5.168;2023-04-25T11:29:16;9.00;;;2.28;;
69744;SDS011;57015;50.120;-5.168;2023-04-25T11:31:45;9.57;;;2.10;;
69744;SDS011;57015;50.120;-5.168;2023-04-25T11:34:10;9.70;;;2.20;;
69744;SDS011;57015;50.120;-5.168;2023-04-25T11:36:36;9.50;;;2.20;;
69744;SDS011;57015;50.120;-5.168;2023-04-25T11:39:03;5.87;;;2.03;;
69744;SDS011;57015;50.120;-5.168;2023-04-25T11:41:28;8.55;;;1.80;;
69744;SDS011;57015;50.120;-5.168;2023-04-25T11:43:55;14.52;;;2.05;;
69744;SDS011;57015;50.120;-5.168;2023-04-25T11:46:21;12.60;;;2.23;;
69744;SDS011;57015;50.120;-5.168;2023-04-25T11:48:46;16.50;;;1.95;;
69744;SDS011;57015;50.120;-5.168;2023-04-25T11:51:12;12.40;;;2.17;;
69744;SDS011;57015;50.120;-5.168;2023-04-25T11:53:40;18.20;;;2.70;;
69744;SDS011;57015;50.120;-5.168;2023-04-25T11:56:10;8.97;;;1.83;;
69744;SDS011;57015;50.120;-5.168;2023-04-25T12:01:49;9.80;;;2.33;;
69744;SDS011;57015;50.120;-5.168;2023-04-25T12:04:18;16.50;;;2.25;;
69744;SDS011;57015;50.120;-5.168;2023-04-25T12:06:45;9.35;;;1.90;;
69744;SDS011;57015;50.120;-5.168;2023-04-25T12:09:13;10.73;;;1.83;;
69744;SDS011;57015;50.120;-5.168;2023-04-25T12:11:45;11.95;;;1.90;;
69744;SDS011;57015;50.120;-5.168;2023-04-25T12:14:19;9.05;;;2.08;;
69744;SDS011;57015;50.120;-5.168;2023-04-25T12:17:06;7.80;;;1.30;;
69744;SDS011;57015;50.120;-5.168;2023-04-25T12:19:36;11.50;;;1.75;;
69744;SDS011;57015;50.120;-5.168;2023-04-25T12:22:18;8.23;;;1.47;;
69744;SDS011;57015;50.120;-5.168;2023-04-25T12:24:45;11.63;;;1.70;;
69744;SDS011;57015;50.120;-5.168;2023-04-25T12:27:10;8.88;;;1.45;;
69744;SDS011;57015;50.120;-5.168;2023-04-25T12:29:49;9.03;;;2.90;;
69744;SDS011;57015;50.120;-5.168;2023-04-25T12:32:16;8.45;;;1.70;;
69744;SDS011;57015;50.120;-5.168;2023-04-25T12:34:42;10.50;;;2.50;;
69744;SDS011;57015;50.120;-5.168;2023-04-25T12:37:07;9.80;;;1.90;;
69744;SDS011;57015;50.120;-5.168;2023-04-25T12:39:32;8.20;;;1.63;;
69744;SDS011;57015;50.120;-5.168;2023-04-25T12:41:58;10.73;;;1.60;;
69744;SDS011;57015;50.120;-5.168;2023-04-25T12:44:24;12.35;;;1.98;;
69744;SDS011;57015;50.120;-5.168;2023-04-25T12:46:50;7.40;;;1.47;;
69744;SDS011;57015;50.120;-5.168;2023-04-25T12:49:15;9.73;;;1.30;;
69744;SDS011;57015;50.120;-5.168;2023-04-25T12:51:40;13.38;;;2.30;;
69744;SDS011;57015;50.120;-5.168;2023-04-25T12:54:06;8.17;;;1.30;;
69744;SDS011;57015;50.120;-5.168;2023-04-25T12:56:33;6.72;;;1.70;;
69744;SDS011;57015;50.120;-5.168;2023-04-25T12:58:59;8.30;;;1.20;;
69744;SDS011;57015;50.120;-5.168;2023-04-25T13:01:25;7.37;;;1.63;;
69744;SDS011;57015;50.120;-5.168;2023-04-25T13:03:51;9.00;;;1.40;;
69744;SDS011;57015;50.120;-5.168;2023-04-25T13:06:17;12.98;;;1.70;;
69744;SDS011;57015;50.120;-5.168;2023-04-25T13:08:43;7.80;;;1.40;;
69744;SDS011;57015;50.120;-5.168;2023-04-25T13:11:09;13.23;;;1.52;;
69744;SDS011;57015;50.120;-5.168;2023-04-25T13:13:36;7.30;;;1.23;;
69744;SDS011;57015;50.120;-5.168;2023-04-25T13:16:01;6.97;;;1.90;;
69744;SDS011;57015;50.120;-5.168;2023-04-25T13:18:27;8.60;;;1.83;;
69744;SDS011;57015;50.120;-5.168;2023-04-25T13:20:54;11.43;;;1.85;;
69744;SDS011;57015;50.120;-5.168;2023-04-25T13:23:19;8.20;;;1.00;;
69744;SDS011;57015;50.120;-5.168;2023-04-25T13:25:45;5.43;;;1.17;;
69744;SDS011;57015;50.120;-5.168;2023-04-25T13:28:11;7.05;;;1.50;;
69744;SDS011;57015;50.120;-5.168;2023-04-25T13:30:36;8.70;;;1.67;;
69744;SDS011;57015;50.120;-5.168;2023-04-25T13:33:02;8.20;;;1.30;;
69744;SDS011;57015;50.120;-5.168;2023-04-25T13:35:28;7.57;;;1.55;;
69744;SDS011;57015;50.120;-5.168;2023-04-25T13:37:54;9.50;;;1.48;;
69744;SDS011;57015;50.120;-5.168;2023-04-25T13:40:20;9.37;;;1.63;;
69744;SDS011;57015;50.120;-5.168;2023-04-25T13:42:45;6.27;;;0.90;;
69744;SDS011;57015;50.120;-5.168;2023-04-25T13:45:11;8.07;;;1.27;;
69744;SDS011;57015;50.120;-5.168;2023-04-25T13:47:36;8.68;;;2.03;;
69744;SDS011;57015;50.120;-5.168;2023-04-25T13:50:02;8.07;;;1.07;;
69744;SDS011;57015;50.120;-5.168;2023-04-25T13:52:28;7.68;;;1.10;;
69744;SDS011;57015;50.120;-5.168;2023-04-25T13:54:54;8.97;;;0.93;;
69744;SDS011;57015;50.120;-5.168;2023-04-25T13:57:19;9.97;;;1.63;;
69744;SDS011;57015;50.120;-5.168;2023-04-25T13:59:45;5.32;;;1.15;;
69744;SDS011;57015;50.120;-5.168;2023-04-25T14:02:11;6.67;;;1.40;;
69744;SDS011;57015;50.120;-5.168;2023-04-25T14:04:37;8.35;;;0.90;;
69744;SDS011;57015;50.120;-5.168;2023-04-25T14:07:02;9.80;;;1.33;;
69744;SDS011;57015;50.120;-5.168;2023-04-25T14:09:28;8.63;;;1.13;;
69744;SDS011;57015;50.120;-5.168;2023-04-25T14:11:54;10.70;;;2.03;;
69744;SDS011;57015;50.120;-5.168;2023-04-25T14:14:21;5.25;;;1.10;;
69744;SDS011;57015;50.120;-5.168;2023-04-25T14:16:47;9.00;;;1.45;;
69744;SDS011;57015;50.120;-5.168;2023-04-25T14:19:17;11.10;;;1.30;;
69744;SDS011;57015;50.120;-5.168;2023-04-25T14:21:43;5.45;;;0.98;;
69744;SDS011;57015;50.120;-5.168;2023-04-25T14:24:08;10.13;;;1.13;;
69744;SDS011;57015;50.120;-5.168;2023-04-25T14:26:34;9.80;;;0.90;;
69744;SDS011;57015;50.120;-5.168;2023-04-25T14:29:01;6.27;;;1.23;;
69744;SDS011;57015;50.120;-5.168;2023-04-25T14:31:26;13.25;;;1.23;;
69744;SDS011;57015;50.120;-5.168;2023-04-25T14:33:52;7.43;;;0.87;;
69744;SDS011;57015;50.120;-5.168;2023-04-25T14:36:18;7.43;;;1.63;;
69744;SDS011;57015;50.120;-5.168;2023-04-25T14:38:43;8.00;;;1.10;;
69744;SDS011;57015;50.120;-5.168;2023-04-25T14:41:09;7.57;;;1.23;;
69744;SDS011;57015;50.120;-5.168;2023-04-25T14:43:34;5.65;;;1.08;;